createdAt,value
2022-08-01T00:01:32.485Z,1.80
2022-08-01T00:04:00.764Z,1.70
2022-08-01T00:06:29.659Z,1.80
2022-08-01T00:08:57.968Z,2.37
2022-08-01T00:11:26.255Z,2.43
2022-08-01T00:13:54.757Z,2.10
2022-08-01T00:16:24.475Z,2.07
2022-08-01T00:18:55.012Z,2.20
2022-08-01T00:21:23.696Z,2.50
2022-08-01T00:23:52.001Z,2.30
2022-08-01T00:26:20.976Z,1.80
2022-08-01T00:28:49.136Z,2.23
2022-08-01T00:31:17.328Z,2.40
2022-08-01T00:33:45.452Z,2.83
2022-08-01T00:36:15.193Z,2.47
2022-08-01T00:38:43.315Z,2.27
2022-08-01T00:41:11.516Z,2.30
2022-08-01T00:43:39.940Z,2.30
2022-08-01T00:46:08.082Z,2.57
2022-08-01T00:48:36.246Z,2.20
2022-08-01T00:51:05.752Z,2.20
2022-08-01T00:53:51.083Z,2.60
2022-08-01T00:56:20.595Z,2.37
2022-08-01T00:58:49.083Z,2.20
2022-08-01T01:01:19.125Z,2.77
2022-08-01T01:04:03.052Z,2.60
2022-08-01T01:06:46.575Z,2.50
2022-08-01T01:09:29.809Z,2.40
2022-08-01T01:12:05.226Z,2.77
2022-08-01T01:14:45.648Z,3.27
2022-08-01T01:17:17.139Z,3.00
2022-08-01T01:20:02.048Z,2.30
2022-08-01T01:22:44.076Z,2.80
2022-08-01T01:25:27.984Z,2.97
2022-08-01T01:28:09.623Z,2.90
2022-08-01T01:30:42.711Z,2.60
2022-08-01T01:33:13.299Z,2.53
2022-08-01T01:35:47.138Z,2.47
2022-08-01T01:38:22.110Z,2.50
2022-08-01T01:40:52.453Z,2.93
2022-08-01T01:43:22.508Z,2.50
2022-08-01T01:45:59.540Z,2.23
2022-08-01T01:48:29.864Z,2.60
2022-08-01T01:50:58.619Z,2.33
2022-08-01T01:53:29.023Z,2.60
2022-08-01T01:55:59.289Z,2.70
2022-08-01T01:58:29.723Z,2.53
2022-08-01T02:01:03.567Z,2.80
2022-08-01T02:03:33.751Z,3.10
2022-08-01T02:06:04.165Z,2.13
2022-08-01T02:08:34.964Z,2.80
2022-08-01T02:11:23.275Z,2.63
2022-08-01T02:13:56.601Z,2.83
2022-08-01T02:16:29.556Z,2.70
2022-08-01T02:18:58.108Z,2.80
2022-08-01T02:21:30.596Z,2.60
2022-08-01T02:24:09.367Z,2.40
2022-08-01T02:26:41.096Z,2.53
2022-08-01T02:29:12.504Z,2.97
2022-08-01T02:31:47.970Z,2.37
2022-08-01T02:34:20.259Z,2.03
2022-08-01T02:36:49.142Z,2.60
2022-08-01T02:39:19.772Z,2.60
2022-08-01T02:41:52.175Z,2.40
2022-08-01T02:44:30.723Z,2.53
2022-08-01T02:47:04.219Z,2.83
2022-08-01T02:49:35.399Z,2.30
2022-08-01T02:52:07.737Z,2.50
2022-08-01T02:54:38.202Z,2.70
2022-08-01T02:57:07.919Z,2.80
2022-08-01T02:59:41.226Z,3.00
2022-08-01T03:02:11.982Z,2.30
2022-08-01T03:04:43.557Z,2.60
2022-08-01T03:07:13.260Z,2.13
2022-08-01T03:09:44.613Z,2.07
2022-08-01T03:12:15.707Z,2.60
2022-08-01T03:14:46.551Z,3.27
2022-08-01T03:17:19.156Z,2.10
2022-08-01T03:19:48.619Z,2.40
2022-08-01T03:22:18.689Z,3.03
2022-08-01T03:24:51.699Z,2.30
2022-08-01T03:27:21.537Z,2.43
2022-08-01T03:29:51.699Z,2.53
2022-08-01T03:32:22.878Z,2.70
2022-08-01T03:34:51.492Z,2.50
2022-08-01T03:37:25.660Z,3.07
2022-08-01T03:39:59.747Z,2.23
2022-08-01T03:42:34.045Z,2.93
2022-08-01T03:45:06.907Z,2.87
2022-08-01T03:47:40.854Z,2.60
2022-08-01T03:50:15.572Z,2.53
2022-08-01T03:52:48.541Z,2.40
2022-08-01T03:55:18.645Z,2.53
2022-08-01T03:57:48.325Z,3.20
2022-08-01T04:00:19.372Z,2.47
2022-08-01T04:02:51.067Z,2.70
2022-08-01T04:05:20.167Z,2.17
2022-08-01T04:07:51.762Z,2.83
2022-08-01T04:10:19.904Z,2.33
2022-08-01T04:12:48.303Z,2.90
2022-08-01T04:15:16.523Z,2.87
2022-08-01T04:17:44.731Z,2.10
2022-08-01T04:20:16.777Z,2.93
2022-08-01T04:23:00.491Z,2.43
2022-08-01T04:25:34.227Z,2.40
2022-08-01T04:28:05.256Z,2.83
2022-08-01T04:30:36.217Z,2.53
2022-08-01T04:33:10.554Z,3.50
2022-08-01T04:36:04.039Z,3.43
2022-08-01T04:38:37.565Z,3.20
2022-08-01T04:41:09.345Z,2.77
2022-08-01T04:43:38.636Z,3.37
2022-08-01T04:46:08.203Z,3.23
2022-08-01T04:48:39.538Z,3.03
2022-08-01T04:51:16.180Z,2.90
2022-08-01T04:53:45.176Z,3.20
2022-08-01T04:56:14.296Z,2.60
2022-08-01T04:58:42.960Z,3.33
2022-08-01T05:01:13.270Z,3.13
2022-08-01T05:03:42.096Z,3.50
2022-08-01T05:06:12.256Z,3.07
2022-08-01T05:08:42.434Z,2.70
2022-08-01T05:11:12.420Z,2.87
2022-08-01T05:13:41.742Z,2.90
2022-08-01T05:16:10.274Z,2.87
2022-08-01T05:18:38.848Z,2.50
2022-08-01T05:21:07.345Z,2.63
2022-08-01T05:23:42.953Z,2.90
2022-08-01T05:26:13.886Z,2.87
2022-08-01T05:28:43.286Z,3.03
2022-08-01T05:31:11.771Z,2.50
2022-08-01T05:33:39.956Z,2.00
2022-08-01T05:36:08.246Z,2.30
2022-08-01T05:38:37.825Z,3.17
2022-08-01T05:41:06.814Z,2.80
2022-08-01T05:43:35.085Z,2.60
2022-08-01T05:46:03.386Z,2.60
2022-08-01T05:48:31.670Z,2.30
2022-08-01T05:51:00.157Z,2.70
2022-08-01T05:53:28.508Z,2.23
2022-08-01T05:55:58.285Z,2.23
2022-08-01T05:58:26.446Z,2.57
2022-08-01T06:00:54.685Z,1.90
2022-08-01T06:03:22.844Z,3.17
2022-08-01T06:05:51.040Z,2.30
2022-08-01T06:08:19.273Z,2.37
2022-08-01T06:10:47.511Z,2.47
2022-08-01T06:13:17.109Z,2.03
2022-08-01T06:15:45.280Z,2.50
2022-08-01T06:18:13.441Z,2.77
2022-08-01T06:20:41.736Z,2.17
2022-08-01T06:23:14.685Z,2.90
2022-08-01T06:25:59.030Z,2.67
2022-08-01T06:28:28.571Z,2.47
2022-08-01T06:30:56.738Z,2.80
2022-08-01T06:33:24.883Z,2.23
2022-08-01T06:35:53.016Z,2.20
2022-08-01T06:38:21.203Z,2.80
2022-08-01T06:40:49.470Z,2.20
2022-08-01T06:43:17.703Z,2.30
2022-08-01T06:45:47.249Z,2.10
2022-08-01T06:48:15.780Z,2.20
2022-08-01T06:50:43.937Z,1.87
2022-08-01T06:53:12.137Z,2.07
2022-08-01T06:55:40.342Z,2.40
2022-08-01T06:58:08.793Z,2.50
2022-08-01T07:00:37.079Z,2.17
2022-08-01T07:03:06.646Z,2.80
2022-08-01T07:05:34.790Z,4.10
2022-08-01T07:08:03.211Z,3.70
2022-08-01T07:10:31.614Z,3.23
2022-08-01T07:12:59.831Z,3.50
2022-08-01T07:15:28.346Z,4.10
2022-08-01T07:17:58.311Z,3.27
2022-08-01T07:20:27.867Z,2.73
2022-08-01T07:22:57.850Z,2.80
2022-08-01T07:25:28.300Z,3.00
2022-08-01T07:27:56.456Z,2.13
2022-08-01T07:30:24.633Z,2.50
2022-08-01T07:32:52.751Z,2.63
2022-08-01T07:35:21.285Z,2.77
2022-08-01T07:37:50.860Z,2.83
2022-08-01T07:40:19.857Z,3.10
2022-08-01T07:42:48.279Z,2.60
2022-08-01T07:45:16.578Z,2.37
2022-08-01T07:47:44.871Z,2.00
2022-08-01T07:50:13.778Z,2.17
2022-08-01T07:52:42.415Z,2.13
2022-08-01T07:55:16.538Z,2.37
2022-08-01T07:57:45.219Z,2.50
2022-08-01T08:00:14.489Z,2.27
2022-08-01T08:02:43.114Z,2.30
2022-08-01T08:05:11.843Z,2.30
2022-08-01T08:07:40.302Z,2.07
2022-08-01T08:10:09.251Z,2.00
2022-08-01T08:12:38.820Z,2.33
2022-08-01T08:15:07.822Z,2.20
2022-08-01T08:17:36.712Z,2.50
2022-08-01T08:20:09.128Z,3.10
2022-08-01T08:22:39.076Z,2.00
2022-08-01T08:25:08.435Z,2.23
2022-08-01T08:27:38.626Z,2.83
2022-08-01T08:30:08.758Z,2.80
2022-08-01T08:32:37.393Z,3.00
2022-08-01T08:35:06.472Z,2.67
2022-08-01T08:37:38.957Z,3.33
2022-08-01T08:40:12.436Z,4.13
2022-08-01T08:42:43.145Z,2.80
2022-08-01T08:45:13.609Z,3.70
2022-08-01T08:47:44.448Z,2.90
2022-08-01T08:50:13.283Z,3.40
2022-08-01T08:52:42.210Z,2.40
2022-08-01T08:55:11.919Z,2.77
2022-08-01T08:57:45.702Z,2.63
2022-08-01T09:00:17.129Z,3.10
2022-08-01T09:02:47.467Z,3.03
2022-08-01T09:05:19.449Z,3.20
2022-08-01T09:07:48.192Z,3.40
2022-08-01T09:10:16.409Z,3.90
2022-08-01T09:13:08.394Z,3.00
2022-08-01T09:15:44.464Z,3.20
2022-08-01T09:18:28.714Z,3.20
2022-08-01T09:21:15.432Z,3.30
2022-08-01T09:23:53.941Z,3.50
2022-08-01T09:26:30.980Z,3.60
2022-08-01T09:29:01.350Z,3.93
2022-08-01T09:31:38.122Z,2.73
2022-08-01T09:34:08.516Z,4.10
2022-08-01T09:36:52.119Z,3.57
2022-08-01T09:39:24.412Z,3.30
2022-08-01T09:41:53.456Z,4.10
2022-08-01T09:44:43.081Z,3.83
2022-08-01T09:47:15.513Z,3.83
2022-08-01T09:49:50.923Z,3.47
2022-08-01T09:52:25.676Z,3.57
2022-08-01T09:54:56.128Z,3.83
2022-08-01T09:57:25.128Z,3.33
2022-08-01T09:59:59.935Z,3.57
2022-08-01T10:02:31.817Z,3.50
2022-08-01T10:05:03.790Z,3.60
2022-08-01T10:07:43.522Z,3.70
2022-08-01T10:10:14.562Z,3.40
2022-08-01T10:12:45.172Z,3.50
2022-08-01T10:15:18.293Z,2.40
2022-08-01T10:17:54.368Z,3.47
2022-08-01T10:20:29.993Z,3.23
2022-08-01T10:23:02.146Z,3.37
2022-08-01T10:25:43.215Z,3.30
2022-08-01T10:28:21.331Z,3.00
2022-08-01T10:30:54.456Z,3.07
2022-08-01T10:33:51.637Z,2.80
2022-08-01T10:36:13.492Z,3.13
2022-08-01T10:38:42.701Z,2.53
2022-08-01T10:41:16.028Z,3.40
2022-08-01T10:43:45.554Z,3.20
2022-08-01T10:46:17.555Z,3.00
2022-08-01T10:48:53.281Z,3.10
2022-08-01T10:51:27.089Z,3.40
2022-08-01T10:54:12.732Z,3.10
2022-08-01T10:56:44.792Z,3.13
2022-08-01T10:59:17.481Z,2.90
2022-08-01T11:02:07.811Z,3.27
2022-08-01T11:04:45.363Z,3.00
2022-08-01T11:07:19.303Z,3.00
2022-08-01T11:10:04.479Z,2.87
2022-08-01T11:12:45.354Z,3.17
2022-08-01T11:15:29.274Z,3.30
2022-08-01T11:18:02.218Z,2.83
2022-08-01T11:20:32.582Z,2.60
2022-08-01T11:23:19.276Z,2.40
2022-08-01T11:26:11.618Z,2.60
2022-08-01T11:28:44.523Z,2.70
2022-08-01T11:31:37.736Z,2.93
2022-08-01T11:34:08.171Z,2.37
2022-08-01T11:36:58.114Z,2.97
2022-08-01T11:39:25.251Z,2.93
2022-08-01T11:41:55.509Z,2.50
2022-08-01T11:44:30.430Z,2.90
2022-08-01T11:47:02.375Z,3.03
2022-08-01T11:49:56.249Z,2.87
2022-08-01T11:52:29.703Z,3.27
2022-08-01T11:55:00.602Z,3.37
2022-08-01T11:57:34.600Z,2.80
2022-08-01T12:00:08.589Z,3.73
2022-08-01T12:02:45.514Z,3.53
2022-08-01T12:05:19.127Z,3.37
2022-08-01T12:07:51.190Z,3.43
2022-08-01T12:10:21.755Z,3.07
2022-08-01T12:12:51.587Z,3.53
2022-08-01T12:15:21.323Z,3.67
2022-08-01T12:17:58.153Z,3.53
2022-08-01T12:20:31.729Z,3.13
2022-08-01T12:23:02.292Z,3.30
2022-08-01T12:25:30.999Z,3.30
2022-08-01T12:28:03.235Z,3.13
2022-08-01T12:30:35.996Z,2.90
2022-08-01T12:33:05.239Z,3.03
2022-08-01T12:35:37.666Z,3.40
2022-08-01T12:38:07.761Z,3.13
2022-08-01T12:40:42.064Z,3.17
2022-08-01T12:43:27.223Z,3.10
2022-08-01T12:45:58.455Z,3.53
2022-08-01T12:48:27.971Z,3.10
2022-08-01T12:50:59.359Z,3.17
2022-08-01T12:53:40.862Z,2.60
2022-08-01T12:56:11.243Z,3.00
2022-08-01T12:58:40.183Z,3.70
2022-08-01T13:01:11.157Z,3.27
2022-08-01T13:03:40.085Z,2.63
2022-08-01T13:06:16.134Z,2.93
2022-08-01T13:08:45.927Z,2.70
2022-08-01T13:11:17.455Z,2.63
2022-08-01T13:13:48.309Z,2.60
2022-08-01T13:16:25.921Z,3.07
2022-08-01T13:19:06.972Z,2.80
2022-08-01T13:21:52.743Z,2.90
2022-08-01T13:24:27.810Z,2.93
2022-08-01T13:26:59.809Z,2.53
2022-08-01T13:29:33.747Z,2.93
2022-08-01T13:32:02.755Z,3.07
2022-08-01T13:34:34.716Z,3.00
2022-08-01T13:37:04.515Z,3.27
2022-08-01T13:39:42.414Z,3.20
2022-08-01T13:42:12.151Z,2.57
2022-08-01T13:44:47.499Z,2.17
2022-08-01T13:47:16.295Z,2.67
2022-08-01T13:49:45.786Z,2.63
2022-08-01T13:52:15.472Z,2.77
2022-08-01T13:54:44.041Z,2.50
2022-08-01T13:57:12.543Z,2.73
2022-08-01T13:59:40.763Z,2.07
2022-08-01T14:02:09.620Z,2.10
2022-08-01T14:04:37.917Z,2.03
2022-08-01T14:07:09.537Z,1.80
2022-08-01T14:09:45.017Z,2.00
2022-08-01T14:12:29.333Z,2.30
2022-08-01T14:14:57.651Z,1.97
2022-08-01T14:17:26.193Z,2.20
2022-08-01T14:20:00.349Z,2.13
2022-08-01T14:22:28.974Z,1.80
2022-08-01T14:25:01.654Z,2.07
2022-08-01T14:27:31.968Z,1.77
2022-08-01T14:30:03.765Z,1.90
2022-08-01T14:32:34.369Z,1.90
2022-08-01T14:35:03.391Z,1.90
2022-08-01T14:37:37.325Z,1.87
2022-08-01T14:40:10.227Z,1.80
2022-08-01T14:42:39.234Z,1.73
2022-08-01T14:45:10.759Z,1.97
2022-08-01T14:47:39.507Z,1.40
2022-08-01T14:50:09.619Z,2.30
2022-08-01T14:52:39.424Z,1.70
2022-08-01T14:55:10.787Z,2.00
2022-08-01T14:57:40.356Z,2.20
2022-08-01T15:00:12.929Z,1.53
2022-08-01T15:02:41.291Z,2.37
2022-08-01T15:05:10.601Z,2.63
2022-08-01T15:07:51.719Z,2.23
2022-08-01T15:10:24.021Z,1.53
2022-08-01T15:12:52.192Z,1.90
2022-08-01T15:15:20.967Z,2.70
2022-08-01T15:17:49.159Z,2.50
2022-08-01T15:20:17.585Z,2.27
2022-08-01T15:22:46.079Z,2.17
2022-08-01T15:25:14.335Z,2.23
2022-08-01T15:27:44.188Z,2.27
2022-08-01T15:30:13.268Z,1.80
2022-08-01T15:32:41.431Z,2.40
2022-08-01T15:35:11.232Z,2.50
2022-08-01T15:37:43.013Z,1.90
2022-08-01T15:40:12.343Z,1.97
2022-08-01T15:42:40.751Z,2.27
2022-08-01T15:45:25.603Z,2.00
2022-08-01T15:48:00.136Z,2.03
2022-08-01T15:50:28.363Z,2.10
2022-08-01T15:52:56.532Z,2.30
2022-08-01T15:55:24.879Z,2.10
2022-08-01T15:57:53.330Z,2.07
2022-08-01T16:00:23.017Z,2.07
2022-08-01T16:02:51.219Z,2.10
2022-08-01T16:05:20.443Z,2.40
2022-08-01T16:07:59.580Z,1.80
2022-08-01T16:10:30.268Z,3.90
2022-08-01T16:12:58.626Z,3.40
2022-08-01T16:15:36.555Z,3.17
2022-08-01T16:18:06.404Z,2.83
2022-08-01T16:20:35.274Z,2.93
2022-08-01T16:23:03.843Z,2.80
2022-08-01T16:25:32.228Z,2.30
2022-08-01T16:28:00.390Z,2.60
2022-08-01T16:30:28.546Z,2.83
2022-08-01T16:33:07.822Z,2.33
2022-08-01T16:35:44.848Z,2.63
2022-08-01T16:38:16.819Z,3.00
2022-08-01T16:40:47.979Z,2.50
2022-08-01T16:43:16.447Z,2.27
2022-08-01T16:45:45.031Z,2.20
2022-08-01T16:48:18.288Z,1.97
2022-08-01T16:50:49.270Z,2.00
2022-08-01T16:53:18.699Z,2.30
2022-08-01T16:55:50.594Z,2.27
2022-08-01T16:58:21.806Z,1.80
2022-08-01T17:01:52.609Z,2.20
2022-08-01T17:03:53.040Z,1.87
2022-08-01T17:06:23.968Z,1.80
2022-08-01T17:08:52.237Z,2.60
2022-08-01T17:11:20.514Z,1.97
2022-08-01T17:13:49.045Z,1.50
2022-08-01T17:16:17.218Z,1.70
2022-08-01T17:18:47.140Z,1.43
2022-08-01T17:21:15.352Z,1.60
2022-08-01T17:23:43.538Z,1.53
2022-08-01T17:26:12.044Z,1.70
2022-08-01T17:28:40.260Z,1.83
2022-08-01T17:31:10.452Z,2.13
2022-08-01T17:33:44.627Z,1.87
2022-08-01T17:36:17.757Z,1.63
2022-08-01T17:38:46.085Z,2.27
2022-08-01T17:41:14.486Z,1.37
2022-08-01T17:43:42.760Z,1.10
2022-08-01T17:46:10.992Z,1.10
2022-08-01T17:48:39.153Z,1.30
2022-08-01T17:51:07.484Z,1.20
2022-08-01T17:53:37.928Z,1.27
2022-08-01T17:56:26.171Z,1.07
2022-08-01T17:58:54.463Z,0.90
2022-08-01T18:01:27.052Z,1.33
2022-08-01T18:03:57.624Z,1.33
2022-08-01T18:06:27.455Z,1.40
2022-08-01T18:08:59.393Z,1.30
2022-08-01T18:11:28.002Z,1.23
2022-08-01T18:13:57.017Z,1.10
2022-08-01T18:16:28.006Z,1.23
2022-08-01T18:18:56.884Z,1.10
2022-08-01T18:21:25.137Z,1.00
2022-08-01T18:23:53.337Z,1.60
2022-08-01T18:26:23.075Z,1.50
2022-08-01T18:28:51.647Z,1.10
2022-08-01T18:31:20.242Z,1.20
2022-08-01T18:33:48.683Z,1.67
2022-08-01T18:36:32.245Z,1.40
2022-08-01T18:39:04.671Z,1.53
2022-08-01T18:41:35.830Z,1.33
2022-08-01T18:44:08.377Z,1.43
2022-08-01T18:46:38.151Z,1.67
2022-08-01T18:49:07.253Z,1.37
2022-08-01T18:51:38.879Z,1.70
2022-08-01T18:54:11.393Z,1.70
2022-08-01T18:56:41.278Z,1.60
2022-08-01T18:59:09.430Z,2.17
2022-08-01T19:01:37.887Z,2.60
2022-08-01T19:04:06.396Z,1.63
2022-08-01T19:06:34.631Z,1.10
2022-08-01T19:09:03.598Z,1.43
2022-08-01T19:11:31.941Z,1.77
2022-08-01T19:14:03.289Z,1.70
2022-08-01T19:16:31.945Z,1.80
2022-08-01T19:19:01.860Z,1.43
2022-08-01T19:21:33.097Z,1.30
2022-08-01T19:24:23.586Z,1.27
2022-08-01T19:26:54.614Z,1.37
2022-08-01T19:29:35.263Z,1.10
2022-08-01T19:32:06.693Z,1.37
2022-08-01T19:34:37.557Z,1.60
2022-08-01T19:37:06.357Z,1.00
2022-08-01T19:39:35.143Z,1.37
2022-08-01T19:42:04.132Z,1.37
2022-08-01T19:44:34.547Z,1.30
2022-08-01T19:47:03.449Z,1.60
2022-08-01T19:49:31.690Z,1.63
2022-08-01T19:52:02.488Z,1.20
2022-08-01T19:54:35.278Z,1.37
2022-08-01T19:57:05.364Z,1.90
2022-08-01T19:59:36.479Z,1.80
2022-08-01T20:02:05.351Z,1.53
2022-08-01T20:04:34.748Z,1.43
2022-08-01T20:07:04.713Z,1.70
2022-08-01T20:09:34.484Z,1.57
2022-08-01T20:12:03.099Z,1.40
2022-08-01T20:14:31.467Z,1.30
2022-08-01T20:17:01.303Z,2.20
2022-08-01T20:19:30.737Z,2.80
2022-08-01T20:22:03.844Z,1.60
2022-08-01T20:24:38.055Z,1.23
2022-08-01T20:27:09.157Z,1.47
2022-08-01T20:29:38.035Z,1.57
2022-08-01T20:32:08.747Z,1.40
2022-08-01T20:34:38.825Z,1.80
2022-08-01T20:37:12.448Z,1.33
2022-08-01T20:39:44.302Z,1.87
2022-08-01T20:42:14.408Z,1.73
2022-08-01T20:44:45.229Z,1.30
2022-08-01T20:47:16.091Z,1.23
2022-08-01T20:49:45.335Z,2.07
2022-08-01T20:52:15.617Z,1.60
2022-08-01T20:54:45.066Z,1.40
2022-08-01T20:57:20.413Z,1.23
2022-08-01T20:59:56.503Z,1.37
2022-08-01T21:02:42.583Z,1.60
2022-08-01T21:05:12.487Z,1.67
2022-08-01T21:07:44.462Z,1.37
2022-08-01T21:10:16.022Z,1.33
2022-08-01T21:12:53.253Z,1.30
2022-08-01T21:15:30.055Z,1.40
2022-08-01T21:18:05.147Z,1.23
2022-08-01T21:20:35.114Z,1.97
2022-08-01T21:23:18.390Z,1.50
2022-08-01T21:25:49.127Z,1.30
2022-08-01T21:28:17.291Z,1.63
2022-08-01T21:30:53.796Z,1.60
2022-08-01T21:33:27.624Z,1.63
2022-08-01T21:36:02.575Z,1.87
2022-08-01T21:38:35.436Z,1.50
2022-08-01T21:41:07.858Z,1.77
2022-08-01T21:43:37.507Z,1.30
2022-08-01T21:46:06.097Z,1.50
2022-08-01T21:48:36.913Z,1.30
2022-08-01T21:51:11.592Z,2.00
2022-08-01T21:53:50.681Z,1.90
2022-08-01T21:56:30.916Z,1.40
2022-08-01T21:59:07.581Z,1.40
2022-08-01T22:01:52.145Z,1.40
2022-08-01T22:04:28.023Z,1.50
2022-08-01T22:06:58.108Z,1.70
2022-08-01T22:09:29.927Z,1.50
2022-08-01T22:12:01.505Z,1.63
2022-08-01T22:14:33.467Z,1.20
2022-08-01T22:17:02.261Z,1.70
2022-08-01T22:19:45.443Z,1.17
2022-08-01T22:22:34.233Z,1.27
2022-08-01T22:25:04.605Z,1.60
2022-08-01T22:28:06.628Z,1.20
2022-08-01T22:30:21.888Z,1.13
2022-08-01T22:33:08.088Z,1.20
2022-08-01T22:35:41.210Z,1.70
2022-08-01T22:38:09.959Z,1.30
2022-08-01T22:40:46.100Z,1.70
2022-08-01T22:43:22.504Z,1.30
2022-08-01T22:46:06.373Z,1.10
2022-08-01T22:48:45.362Z,1.30
2022-08-01T22:51:26.927Z,1.43
2022-08-01T22:54:01.173Z,2.00
2022-08-01T22:56:33.124Z,2.00
2022-08-01T22:59:04.329Z,1.20
2022-08-01T23:01:34.059Z,1.30
2022-08-01T23:04:03.653Z,1.27
2022-08-01T23:06:40.112Z,1.43
2022-08-01T23:09:09.739Z,1.37
2022-08-01T23:11:39.249Z,1.47
2022-08-01T23:14:08.401Z,1.70
2022-08-01T23:16:39.309Z,1.60
2022-08-01T23:19:10.508Z,1.60
2022-08-01T23:21:42.117Z,1.53
2022-08-01T23:24:10.861Z,1.30
2022-08-01T23:26:40.053Z,1.50
2022-08-01T23:29:16.367Z,1.40
2022-08-01T23:31:57.310Z,1.23
2022-08-01T23:34:32.980Z,1.30
2022-08-01T23:37:02.578Z,1.10
2022-08-01T23:39:30.773Z,1.30
2022-08-01T23:42:00.235Z,1.90
2022-08-01T23:44:31.234Z,1.53
2022-08-01T23:46:59.501Z,1.30
2022-08-01T23:49:28.063Z,1.33
2022-08-01T23:51:56.324Z,1.40
2022-08-01T23:54:26.163Z,1.50
2022-08-01T23:56:54.334Z,1.23
2022-08-01T23:59:22.985Z,2.10
